Time;durP1;ratioP1;P1;durP2;ratioP2;P2;SDS_P1;SDS_P2;PMS_P1;PMS_P2;Temp;Humidity;BMP_temperature;BMP_pressure;BME280_temperature;BME280_humidity;BME280_pressure;Samples;Min_cycle;Max_cycle;Signal;HPM_P1;HPM_P2
2023/09/11 00:00:49;;;;;;;0.90;0.90;;;;;;;17.18;100.00;100498.63;5037451;28;20240;-76
2023/09/11 00:03:16;;;;;;;0.60;0.60;;;;;;;17.25;100.00;100508.28;5053137;28;20249;-77
2023/09/11 00:05:43;;;;;;;1.77;1.67;;;;;;;17.01;100.00;100490.88;5051516;28;20236;-76
2023/09/11 00:08:29;;;;;;;2.80;1.48;;;;;;;17.04;100.00;100501.53;5056416;28;20233;-77
2023/09/11 00:10:57;;;;;;;11.13;1.05;;;;;;;17.08;100.00;100503.22;5033387;28;20229;-77
2023/09/11 00:13:24;;;;;;;1.25;0.43;;;;;;;17.14;100.00;100504.91;5052567;28;20225;-76
2023/09/11 00:15:50;;;;;;;1.38;1.27;;;;;;;17.04;100.00;100495.28;5036992;28;20225;-77
2023/09/11 00:18:17;;;;;;;0.52;0.52;;;;;;;17.01;100.00;100496.22;5052925;28;20234;-77
2023/09/11 00:20:44;;;;;;;0.55;0.55;;;;;;;17.12;100.00;100504.94;5040953;28;20233;-76
2023/09/11 00:23:11;;;;;;;0.45;0.45;;;;;;;17.22;100.00;100517.25;5059044;28;20273;-76
2023/09/11 00:25:38;;;;;;;1.83;1.05;;;;;;;17.19;100.00;100521.75;5053685;28;20349;-77
2023/09/11 00:28:05;;;;;;;1.85;1.13;;;;;;;17.13;100.00;100516.53;5033471;28;20229;-77
2023/09/11 00:30:32;;;;;;;4.85;1.42;;;;;;;17.14;100.00;100515.59;5048957;28;20602;-77
2023/09/11 00:32:58;;;;;;;1.98;1.42;;;;;;;17.07;100.00;100517.50;5045267;28;21217;-76
2023/09/11 00:35:25;;;;;;;1.58;1.45;;;;;;;17.10;100.00;100519.25;5040685;28;20271;-76
2023/09/11 00:37:52;;;;;;;0.88;0.77;;;;;;;17.14;100.00;100511.16;5041700;28;20222;-77
2023/09/11 00:40:19;;;;;;;0.60;0.35;;;;;;;17.11;100.00;100515.66;5047382;28;20237;-77
2023/09/11 00:42:45;;;;;;;0.30;0.30;;;;;;;17.11;100.00;100513.88;5047229;28;20688;-76
2023/09/11 00:45:12;;;;;;;1.75;1.65;;;;;;;17.02;100.00;100514.03;5055065;28;20306;-76
2023/09/11 00:47:41;;;;;;;1.25;1.23;;;;;;;16.91;100.00;100507.97;5053274;28;20232;-76
2023/09/11 00:50:09;;;;;;;2.67;0.75;;;;;;;16.74;100.00;100489.50;5048328;28;20254;-76
2023/09/11 00:52:36;;;;;;;0.73;0.73;;;;;;;16.70;100.00;100492.25;5047583;28;20238;-77
2023/09/11 00:55:04;;;;;;;1.38;1.27;;;;;;;16.78;100.00;100499.22;5048930;28;20700;-77
2023/09/11 00:57:30;;;;;;;0.20;0.20;;;;;;;16.96;100.00;100519.47;5033839;28;20229;-76
2023/09/11 00:59:57;;;;;;;2.15;1.83;;;;;;;16.75;100.00;100501.94;5040979;28;20704;-77
2023/09/11 01:02:24;;;;;;;3.40;1.20;;;;;;;16.67;100.00;100487.81;5052521;28;20229;-77
2023/09/11 01:04:51;;;;;;;0.90;0.85;;;;;;;16.87;100.00;100503.53;5048963;28;20610;-77
2023/09/11 01:07:18;;;;;;;1.17;1.13;;;;;;;16.64;100.00;100493.19;5055843;28;20229;-76
2023/09/11 01:09:44;;;;;;;0.77;0.77;;;;;;;16.69;100.00;100496.69;5058576;28;20226;-76
2023/09/11 01:12:11;;;;;;;0.65;0.65;;;;;;;16.70;100.00;100497.56;5056667;28;20230;-76
2023/09/11 01:14:38;;;;;;;1.88;1.10;;;;;;;16.71;100.00;100504.69;5064696;28;20229;-77
2023/09/11 01:17:25;;;;;;;0.75;0.70;;;;;;;16.58;100.00;100495.94;5054037;28;20241;-77
2023/09/11 01:19:58;;;;;;;1.48;1.33;;;;;;;16.48;100.00;100491.63;5037317;28;20231;-77
2023/09/11 01:22:37;;;;;;;0.60;0.60;;;;;;;16.51;100.00;100500.47;5062128;28;20236;-77
2023/09/11 01:25:38;;;;;;;0.80;0.80;;;;;;;16.46;100.00;100491.66;5047233;28;20225;-77
2023/09/11 01:28:37;;;;;;;0.60;0.60;;;;;;;16.46;100.00;100498.78;5049283;28;20252;-77
2023/09/11 01:31:04;;;;;;;0.45;0.45;;;;;;;16.25;100.00;100484.84;5044603;28;20236;-76
2023/09/11 01:33:32;;;;;;;0.68;0.68;;;;;;;16.13;100.00;100476.09;5064470;28;20305;-77
2023/09/11 01:35:59;;;;;;;1.38;1.27;;;;;;;16.05;100.00;100476.19;5022511;28;20241;-76
2023/09/11 01:38:25;;;;;;;3.50;1.58;;;;;;;16.14;100.00;100485.88;5062364;28;20230;-77
2023/09/11 01:40:54;;;;;;;1.77;1.30;;;;;;;16.07;100.00;100484.19;5054240;28;20226;-77
2023/09/11 01:43:21;;;;;;;1.00;0.95;;;;;;;15.88;100.00;100470.19;5052958;28;20239;-77
2023/09/11 01:45:49;;;;;;;0.60;0.60;;;;;;;15.94;100.00;100483.47;5054528;28;20256;-77
2023/09/11 01:48:16;;;;;;;3.45;1.33;;;;;;;15.95;100.00;100482.56;5050041;28;20225;-76
2023/09/11 01:50:43;;;;;;;0.60;0.25;;;;;;;15.96;100.00;100498.53;5048728;28;20222;-76
2023/09/11 01:53:11;;;;;;;0.88;0.88;;;;;;;15.94;100.00;100499.47;5044777;28;20230;-77
2023/09/11 01:55:38;;;;;;;1.60;0.88;;;;;;;15.94;100.00;100504.78;5056358;28;20221;-76
2023/09/11 01:58:05;;;;;;;3.35;1.98;;;;;;;15.90;100.00;100506.63;5026499;28;20230;-76
2023/09/11 02:00:31;;;;;;;0.45;0.45;;;;;;;15.92;100.00;100506.59;5049659;28;20234;-77
2023/09/11 02:02:58;;;;;;;1.67;1.58;;;;;;;15.82;100.00;100510.28;5054480;28;20249;-77
2023/09/11 02:05:25;;;;;;;0.43;0.43;;;;;;;15.79;100.00;100507.63;5052584;28;20237;-77
2023/09/11 02:07:52;;;;;;;1.00;1.00;;;;;;;15.65;100.00;100498.00;5034134;28;20249;-77
2023/09/11 02:10:18;;;;;;;4.95;1.38;;;;;;;15.60;100.00;100505.16;5039249;28;20238;-77
2023/09/11 02:12:45;;;;;;;0.63;0.63;;;;;;;15.47;100.00;100490.13;5047839;28;20359;-77
2023/09/11 02:15:12;;;;;;;0.70;0.70;;;;;;;15.41;100.00;100498.19;5052430;28;20233;-77
2023/09/11 02:17:38;;;;;;;1.60;1.50;;;;;;;15.40;100.00;100499.09;5052992;28;20237;-76
2023/09/11 02:20:06;;;;;;;1.17;1.05;;;;;;;15.41;100.00;100505.28;5073168;28;20241;-76
2023/09/11 02:22:32;;;;;;;1.58;1.13;;;;;;;15.50;100.00;100515.88;5018856;28;20250;-76
2023/09/11 02:24:59;;;;;;;2.42;1.20;;;;;;;15.57;100.00;100525.56;5053351;28;20603;-77
2023/09/11 02:27:26;;;;;;;7.95;1.00;;;;;;;15.77;100.00;100533.44;5063040;28;20234;-77
2023/09/11 02:29:52;;;;;;;1.52;0.75;;;;;;;15.70;100.00;100529.94;5056918;28;20220;-77
2023/09/11 02:32:19;;;;;;;1.10;0.80;;;;;;;15.41;100.00;100503.50;5063468;28;20234;-77
2023/09/11 02:34:46;;;;;;;0.68;0.68;;;;;;;15.45;100.00;100515.03;5046387;28;20233;-77
2023/09/11 02:37:13;;;;;;;0.90;0.90;;;;;;;15.43;100.00;100517.72;5059045;28;20217;-77
2023/09/11 02:39:39;;;;;;;0.50;0.50;;;;;;;15.48;100.00;100523.88;5035921;28;20241;-77
2023/09/11 02:42:06;;;;;;;0.47;0.47;;;;;;;15.59;100.00;100540.69;5053213;28;20567;-78
2023/09/11 02:44:33;;;;;;;0.90;0.57;;;;;;;15.46;100.00;100533.66;5053511;28;20242;-77
2023/09/11 02:47:00;;;;;;;0.82;0.82;;;;;;;15.55;100.00;100541.59;5058402;28;20639;-77
2023/09/11 02:49:26;;;;;;;0.57;0.57;;;;;;;15.37;100.00;100529.31;5074866;28;20250;-78
2023/09/11 02:51:53;;;;;;;1.13;1.13;;;;;;;15.26;100.00;100522.31;5044228;28;20241;-77
2023/09/11 02:54:20;;;;;;;0.50;0.47;;;;;;;15.20;100.00;100525.91;5051384;28;20245;-76
2023/09/11 02:56:47;;;;;;;4.55;1.00;;;;;;;15.23;100.00;100530.31;5031937;28;20222;-76
2023/09/11 02:59:14;;;;;;;0.73;0.73;;;;;;;15.21;100.00;100537.44;5063501;28;20260;-77
2023/09/11 03:01:40;;;;;;;0.95;0.90;;;;;;;15.26;100.00;100540.97;5038794;28;20233;-75
2023/09/11 03:04:07;;;;;;;0.85;0.85;;;;;;;15.28;100.00;100540.06;5038948;28;20242;-76
2023/09/11 03:06:34;;;;;;;0.73;0.68;;;;;;;15.21;100.00;100540.13;5051909;28;20233;-77
2023/09/11 03:09:00;;;;;;;1.80;1.50;;;;;;;15.35;100.00;100538.22;5036846;28;20237;-77
2023/09/11 03:11:27;;;;;;;0.68;0.68;;;;;;;15.34;100.00;100536.44;5068321;28;20228;-77
2023/09/11 03:13:54;;;;;;;0.85;0.85;;;;;;;15.25;100.00;100529.41;5050046;28;20226;-76
2023/09/11 03:16:21;;;;;;;1.30;1.20;;;;;;;15.19;100.00;100524.16;5059257;28;20703;-77
2023/09/11 03:18:47;;;;;;;0.95;0.95;;;;;;;15.17;100.00;100525.06;5056621;28;20230;-78
2023/09/11 03:21:14;;;;;;;0.30;0.30;;;;;;;15.24;100.00;100537.44;5070258;28;20354;-78
2023/09/11 03:23:41;;;;;;;1.90;0.63;;;;;;;15.15;100.00;100525.06;5049545;28;20236;-77
2023/09/11 03:26:15;;;;;;;2.97;1.55;;;;;;;14.96;100.00;100515.44;5055454;28;20230;-78
2023/09/11 03:28:47;;;;;;;1.58;1.42;;;;;;;14.83;100.00;100506.66;5045324;28;20226;-77
2023/09/11 03:31:15;;;;;;;0.30;0.30;;;;;;;14.78;100.00;100510.25;5062773;28;20225;-77
2023/09/11 03:33:42;;;;;;;0.98;0.70;;;;;;;14.78;100.00;100515.59;5039171;28;20622;-77
2023/09/11 03:36:13;;;;;;;0.93;0.93;;;;;;;14.75;100.00;100523.59;5055088;28;20624;-77
2023/09/11 03:38:40;;;;;;;0.82;0.82;;;;;;;14.81;100.00;100532.44;5051872;28;20236;-76
2023/09/11 03:41:07;;;;;;;0.68;0.68;;;;;;;14.80;100.00;100527.09;5054187;28;20261;-77
2023/09/11 03:43:34;;;;;;;1.13;1.13;;;;;;;14.75;100.00;100532.47;5050530;28;20244;-77
2023/09/11 03:46:01;;;;;;;1.25;0.82;;;;;;;14.75;100.00;100539.56;5047512;28;20238;-77
2023/09/11 03:48:28;;;;;;;5.15;1.90;;;;;;;14.70;100.00;100534.28;5059344;28;20233;-77
2023/09/11 03:50:56;;;;;;;0.55;0.55;;;;;;;14.73;100.00;100539.56;5043038;28;20222;-77
2023/09/11 03:53:22;;;;;;;2.00;1.45;;;;;;;14.70;100.00;100536.94;5049952;28;20247;-77
2023/09/11 03:55:49;;;;;;;0.70;0.70;;;;;;;14.68;100.00;100536.94;5040576;28;20693;-77
2023/09/11 03:58:16;;;;;;;0.50;0.50;;;;;;;14.76;100.00;100546.66;5043231;28;20244;-77
2023/09/11 04:00:44;;;;;;;1.33;0.82;;;;;;;14.70;100.00;100543.13;5046571;28;20233;-77
2023/09/11 04:03:11;;;;;;;1.33;1.25;;;;;;;14.66;100.00;100546.72;5046872;28;20292;-77
2023/09/11 04:05:38;;;;;;;0.35;0.35;;;;;;;14.66;100.00;100546.72;5065144;28;20315;-77
2023/09/11 04:08:05;;;;;;;0.47;0.43;;;;;;;14.59;100.00;100541.44;5027037;28;20237;-77
2023/09/11 04:10:32;;;;;;;1.75;1.20;;;;;;;14.60;100.00;100545.88;5047599;28;20221;-75
2023/09/11 04:12:59;;;;;;;1.38;1.27;;;;;;;14.56;100.00;100544.13;5050459;28;20256;-77
2023/09/11 04:15:25;;;;;;;5.28;2.13;;;;;;;14.56;100.00;100545.00;5058291;28;20228;-77
2023/09/11 04:17:54;;;;;;;0.68;0.68;;;;;;;14.55;100.00;100548.56;5050248;28;20244;-77
2023/09/11 04:20:21;;;;;;;0.65;0.65;;;;;;;14.59;100.00;100552.97;5050853;28;20297;-77
2023/09/11 04:22:48;;;;;;;1.25;1.20;;;;;;;14.54;100.00;100553.88;5048491;28;20321;-77
2023/09/11 04:25:15;;;;;;;1.38;1.27;;;;;;;14.41;100.00;100551.25;5044885;28;20246;-77
2023/09/11 04:27:42;;;;;;;0.70;0.70;;;;;;;14.44;100.00;100550.38;5046059;28;20226;-77
2023/09/11 04:30:09;;;;;;;2.88;1.27;;;;;;;14.45;100.00;100556.59;5054714;28;20237;-77
2023/09/11 04:32:36;;;;;;;5.00;1.85;;;;;;;14.52;100.00;100566.31;5053693;28;20233;-77
2023/09/11 04:35:03;;;;;;;0.68;0.68;;;;;;;14.51;100.00;100568.09;5040916;28;20230;-77
2023/09/11 04:37:32;;;;;;;3.15;1.42;;;;;;;14.57;100.00;100575.16;5052089;28;20620;-77
2023/09/11 04:39:59;;;;;;;1.40;1.30;;;;;;;14.64;100.00;100583.09;5056433;28;20240;-76
2023/09/11 04:42:26;;;;;;;0.98;0.98;;;;;;;14.62;100.00;100586.66;5045549;28;20700;-75
2023/09/11 04:44:58;;;;;;;0.77;0.77;;;;;;;14.60;100.00;100592.00;5050106;28;20541;-76
2023/09/11 04:47:27;;;;;;;1.55;1.25;;;;;;;14.62;100.00;100592.88;5030425;28;20244;-76
2023/09/11 04:49:54;;;;;;;0.47;0.47;;;;;;;14.64;100.00;100598.19;5042146;28;20291;-76
2023/09/11 04:52:21;;;;;;;3.28;1.13;;;;;;;14.59;100.00;100602.66;5061660;28;20236;-76
2023/09/11 04:54:47;;;;;;;2.33;2.13;;;;;;;14.59;100.00;100602.66;5048769;28;20241;-77
2023/09/11 04:57:14;;;;;;;1.05;1.05;;;;;;;14.62;100.00;100600.84;5055961;28;20303;-76
2023/09/11 04:59:42;;;;;;;0.57;0.52;;;;;;;14.60;100.00;100609.75;5048659;28;20308;-76
2023/09/11 05:02:11;;;;;;;0.30;0.30;;;;;;;14.58;100.00;100608.88;5053768;28;20313;-76
2023/09/11 05:04:41;;;;;;;0.40;0.40;;;;;;;14.54;100.00;100618.63;5057110;28;20256;-77
2023/09/11 05:07:08;;;;;;;0.68;0.68;;;;;;;14.54;100.00;100623.97;5040131;28;20226;-76
2023/09/11 05:09:35;;;;;;;1.05;1.02;;;;;;;14.52;100.00;100623.09;5044366;28;20311;-76
2023/09/11 05:12:02;;;;;;;0.65;0.65;;;;;;;14.56;100.00;100629.28;5047450;28;20229;-77
2023/09/11 05:14:29;;;;;;;2.17;2.08;;;;;;;14.60;100.00;100631.03;5048484;28;20233;-76
2023/09/11 05:16:56;;;;;;;1.27;1.17;;;;;;;14.62;100.00;100632.81;5036650;28;20251;-76
2023/09/11 05:19:23;;;;;;;1.48;0.95;;;;;;;14.66;100.00;100642.53;5050988;28;20261;-77
2023/09/11 05:21:50;;;;;;;0.60;0.60;;;;;;;14.68;100.00;100654.06;5043639;28;20237;-77
2023/09/11 05:24:16;;;;;;;0.73;0.73;;;;;;;14.68;100.00;100656.72;5055210;28;20225;-78
2023/09/11 05:26:43;;;;;;;2.85;1.92;;;;;;;14.70;100.00;100660.28;5052452;28;20575;-79
2023/09/11 05:29:10;;;;;;;0.70;0.70;;;;;;;14.73;100.00;100673.56;5057286;28;20231;-79
2023/09/11 05:31:36;;;;;;;0.40;0.40;;;;;;;14.66;100.00;100669.16;5061427;28;20230;-80
2023/09/11 05:34:03;;;;;;;1.52;1.42;;;;;;;14.71;100.00;100671.81;5063979;28;20320;-80
2023/09/11 05:36:30;;;;;;;0.73;0.73;;;;;;;14.79;100.00;100679.75;5051231;28;20271;-80
2023/09/11 05:38:57;;;;;;;0.95;0.95;;;;;;;14.79;100.00;100685.97;5053738;28;20251;-80
2023/09/11 05:41:25;;;;;;;1.48;1.38;;;;;;;14.82;100.00;100688.63;5064751;28;20294;-80
2023/09/11 05:43:52;;;;;;;1.17;1.17;;;;;;;14.87;100.00;100694.81;5048722;28;20249;-79
2023/09/11 05:46:19;;;;;;;2.00;1.35;;;;;;;14.96;100.00;100716.06;5058520;28;20284;-80
2023/09/11 05:48:46;;;;;;;1.67;1.58;;;;;;;14.98;100.00;100719.63;5061611;28;20295;-80
2023/09/11 05:51:14;;;;;;;2.25;1.92;;;;;;;15.00;100.00;100731.16;5059162;28;20229;-80
2023/09/11 05:53:40;;;;;;;0.65;0.65;;;;;;;15.05;100.00;100736.44;5041122;28;20230;-79
2023/09/11 05:56:07;;;;;;;3.22;1.98;;;;;;;15.06;100.00;100735.56;5041153;28;20665;-80
2023/09/11 05:58:34;;;;;;;0.88;0.88;;;;;;;15.12;100.00;100740.84;5052122;28;20584;-80
2023/09/11 06:01:01;;;;;;;1.20;1.20;;;;;;;15.18;100.00;100739.94;5051182;28;20244;-80
2023/09/11 06:03:28;;;;;;;2.58;1.75;;;;;;;15.22;100.00;100745.25;5060064;28;20247;-80
2023/09/11 06:05:55;;;;;;;0.90;0.90;;;;;;;15.31;100.00;100754.97;5045874;28;20336;-79
2023/09/11 06:08:22;;;;;;;1.45;1.23;;;;;;;15.37;100.00;100758.50;5048419;28;20234;-80
2023/09/11 06:10:48;;;;;;;1.00;0.85;;;;;;;15.41;100.00;100762.03;5054617;28;20226;-79
2023/09/11 06:13:15;;;;;;;1.27;1.27;;;;;;;15.40;100.00;100752.25;5065391;28;20225;-80
2023/09/11 06:15:42;;;;;;;1.02;1.02;;;;;;;15.54;100.00;100766.38;5046753;28;20223;-80
2023/09/11 06:18:09;;;;;;;2.22;2.13;;;;;;;15.54;100.00;100766.38;5051418;27;20254;-80
2023/09/11 06:20:37;;;;;;;1.65;1.08;;;;;;;15.61;100.00;100768.19;5056637;28;20256;-79
2023/09/11 06:23:04;;;;;;;1.20;1.20;;;;;;;15.70;100.00;100777.91;5056019;28;20241;-80
2023/09/11 06:25:30;;;;;;;1.60;1.45;;;;;;;15.67;100.00;100772.59;5053527;27;20244;-80
2023/09/11 06:27:57;;;;;;;1.45;1.35;;;;;;;16.05;100.00;100800.78;5056572;28;20225;-81
2023/09/11 06:30:24;;;;;;;2.10;1.38;;;;;;;16.11;100.00;100809.63;5052828;28;20238;-80
2023/09/11 06:32:51;;;;;;;1.02;1.02;;;;;;;16.27;100.00;100815.72;5047729;28;20281;-80
2023/09/11 06:35:17;;;;;;;1.15;1.15;;;;;;;16.28;100.00;100817.50;5058012;28;20234;-80
2023/09/11 06:37:44;;;;;;;2.33;1.98;;;;;;;16.20;100.00;100803.34;5067959;28;20242;-80
2023/09/11 06:40:11;;;;;;;1.30;1.27;;;;;;;16.41;100.00;100818.28;5058151;28;20328;-80
2023/09/11 06:42:38;;;;;;;1.17;1.08;;;;;;;16.70;100.00;100842.06;5056995;28;20287;-81
2023/09/11 06:45:06;;;;;;;2.85;2.42;;;;;;;16.87;100.00;100849.03;5051621;28;20237;-81
2023/09/11 06:47:33;;;;;;;4.80;2.33;;;;;;;16.79;100.00;100828.63;5070866;28;20253;-80
2023/09/11 06:50:00;;;;;;;1.45;1.30;;;;;;;16.91;100.00;100834.75;5060085;28;21582;-80
2023/09/11 06:52:27;;;;;;;0.85;0.77;;;;;;;16.84;100.00;100824.13;5064218;28;20229;-81
2023/09/11 06:54:54;;;;;;;1.45;1.35;;;;;;;16.92;100.00;100830.31;5066264;28;20237;-80
2023/09/11 06:57:22;;;;;;;2.40;2.22;;;;;;;16.92;100.00;100823.19;5066879;28;20303;-80
2023/09/11 06:59:49;;;;;;;1.85;1.20;;;;;;;16.92;100.00;100823.19;5051999;28;20226;-78
2023/09/11 07:02:16;;;;;;;2.55;1.90;;;;;;;17.24;100.00;100852.22;5062923;28;20249;-78
2023/09/11 07:04:42;;;;;;;2.67;1.50;;;;;;;17.42;100.00;100858.25;5058251;28;20230;-78
2023/09/11 07:07:09;;;;;;;0.80;0.80;;;;;;;17.46;100.00;100847.47;5064399;28;20233;-78
2023/09/11 07:09:36;;;;;;;1.23;1.15;;;;;;;17.46;100.00;100827.88;5064486;28;20355;-80
2023/09/11 07:12:03;;;;;;;1.77;1.67;;;;;;;17.70;100.00;100832.06;5058070;28;20295;-79
2023/09/11 07:14:30;;;;;;;1.88;1.77;;;;;;;17.75;100.00;100824.84;5061928;28;20287;-78
2023/09/11 07:17:00;;;;;;;5.45;3.53;;;;;;;18.00;100.00;100834.28;5059023;28;20251;-78
2023/09/11 07:19:27;;;;;;;2.70;1.90;;;;;;;18.14;100.00;100831.41;5063946;28;20298;-78
2023/09/11 07:21:54;;;;;;;4.57;2.58;;;;;;;18.23;100.00;100821.47;5065038;28;20237;-78
2023/09/11 07:24:21;;;;;;;4.47;1.27;;;;;;;18.40;100.00;100828.31;5063531;28;20241;-78
2023/09/11 07:26:47;;;;;;;2.25;2.08;;;;;;;18.67;100.00;100833.25;5059377;28;20236;-78
2023/09/11 07:29:14;;;;;;;1.40;1.30;;;;;;;18.65;100.00;100810.94;5062516;28;20305;-81
2023/09/11 07:31:41;;;;;;;1.23;1.23;;;;;;;18.88;100.00;100806.97;5058877;28;20253;-80
2023/09/11 07:34:08;;;;;;;2.20;2.03;;;;;;;19.03;100.00;100795.94;5056368;28;20233;-81
2023/09/11 07:36:36;;;;;;;3.42;1.15;;;;;;;19.14;100.00;100753.72;5061811;28;20638;-78
2023/09/11 07:39:03;;;;;;;2.03;1.83;;;;;;;19.24;100.00;100736.50;5056112;28;20229;-78
2023/09/11 07:41:30;;;;;;;1.67;1.58;;;;;;;19.44;100.00;100710.13;5063653;28;20245;-78
2023/09/11 07:43:57;;;;;;;1.67;1.42;;;;;;;19.40;100.00;100686.09;5056818;28;20257;-78
2023/09/11 07:46:28;;;;;;;1.15;1.05;;;;;;;19.64;100.00;100669.50;5063311;28;20287;-78
2023/09/11 07:48:55;;;;;;;2.97;2.42;;;;;;;19.62;100.00;100657.03;5058978;28;20696;-78
2023/09/11 07:51:25;;;;;;;2.35;1.77;;;;;;;19.69;100.00;100650.59;5065528;28;20560;-79
2023/09/11 07:53:52;;;;;;;2.80;2.60;;;;;;;19.85;100.00;100656.47;5058174;28;20248;-78
2023/09/11 07:56:19;;;;;;;1.75;1.65;;;;;;;19.95;100.00;100650.81;5068391;28;20221;-79
2023/09/11 07:58:50;;;;;;;2.13;1.95;;;;;;;20.05;100.00;100624.59;5052327;28;20772;-79
2023/09/11 08:01:21;;;;;;;1.42;1.33;;;;;;;20.18;100.00;100619.78;5044425;28;20226;-79
2023/09/11 08:03:48;;;;;;;2.60;1.50;;;;;;;20.35;100.00;100617.50;5038599;28;20239;-79
2023/09/11 08:06:16;;;;;;;1.90;1.80;;;;;;;20.38;100.00;100614.72;5044278;28;20317;-78
2023/09/11 08:08:42;;;;;;;2.10;1.88;;;;;;;20.46;100.00;100607.38;5038941;28;20288;-78
2023/09/11 08:11:12;;;;;;;1.52;1.23;;;;;;;20.74;100.00;100605.63;5051634;28;20252;-79
2023/09/11 08:13:39;;;;;;;2.05;1.70;;;;;;;20.76;100.00;100579.59;5050994;28;20257;-79
2023/09/11 08:16:06;;;;;;;1.20;1.20;;;;;;;20.95;100.00;100584.44;5039090;28;20347;-79
2023/09/11 08:18:34;;;;;;;1.60;1.50;;;;;;;21.04;100.00;100562.63;5047120;28;20230;-79
2023/09/11 08:21:01;;;;;;;6.63;2.35;;;;;;;21.20;100.00;100571.09;5031739;28;20246;-79
2023/09/11 08:23:27;;;;;;;2.08;1.88;;;;;;;21.37;100.00;100558.88;5046994;28;20241;-79
2023/09/11 08:25:58;;;;;;;2.45;2.35;;;;;;;21.53;100.00;100556.53;5040573;28;20242;-79
2023/09/11 08:28:25;;;;;;;5.63;2.55;;;;;;;21.59;100.00;100531.25;5047709;28;20320;-79
2023/09/11 08:30:52;;;;;;;2.42;1.55;;;;;;;21.74;100.00;100530.69;5048029;28;20278;-79
2023/09/11 08:33:21;;;;;;;0.68;0.68;;;;;;;21.93;100.00;100528.22;5054007;28;20245;-79
2023/09/11 08:35:49;;;;;;;2.05;1.95;;;;;;;22.11;100.00;100521.34;5052655;28;20799;-79
2023/09/11 08:38:16;;;;;;;1.80;1.60;;;;;;;22.19;100.00;100506.66;5051767;28;20286;-79
2023/09/11 08:40:43;;;;;;;1.42;1.33;;;;;;;22.40;100.00;100504.09;5045289;28;20226;-79
2023/09/11 08:43:10;;;;;;;0.82;0.82;;;;;;;22.46;100.00;100485.88;5063326;28;20311;-79
2023/09/11 08:45:38;;;;;;;0.85;0.85;;;;;;;22.71;100.00;100492.97;5055778;28;20236;-79
2023/09/11 08:48:11;;;;;;;2.08;1.98;;;;;;;22.75;100.00;100484.72;5054466;28;20290;-79
2023/09/11 08:50:43;;;;;;;1.38;1.27;;;;;;;22.94;100.00;100487.56;5068084;28;20251;-80
2023/09/11 08:53:14;;;;;;;1.30;1.20;;;;;;;22.91;100.00;100450.81;5051467;28;20230;-80
2023/09/11 08:55:41;;;;;;;1.80;1.50;;;;;;;23.10;100.00;100450.94;5060453;28;20263;-79
2023/09/11 08:58:11;;;;;;;1.70;1.60;;;;;;;23.25;100.00;100439.47;5065583;28;20229;-80
2023/09/11 09:00:38;;;;;;;1.60;1.35;;;;;;;23.31;100.00;100419.44;5059139;28;20277;-79
2023/09/11 09:03:05;;;;;;;0.98;0.98;;;;;;;23.53;100.00;100425.69;5039175;28;20256;-79
2023/09/11 09:05:33;;;;;;;1.25;1.15;;;;;;;23.61;100.00;100401.97;5066513;28;20248;-79
2023/09/11 09:08:01;;;;;;;1.40;1.25;;;;;;;24.05;100.00;100433.28;5057865;28;20537;-79
2023/09/11 09:10:28;;;;;;;1.00;0.93;;;;;;;24.01;100.00;100407.34;5062420;28;20225;-79
2023/09/11 09:12:55;;;;;;;3.88;1.52;;;;;;;24.06;100.00;100373.75;5052373;28;20236;-79
2023/09/11 09:15:23;;;;;;;1.65;1.27;;;;;;;24.22;100.00;100372.06;5063512;28;20249;-79
2023/09/11 09:17:50;;;;;;;1.90;1.35;;;;;;;24.50;100.00;100377.03;5023181;28;20233;-78
2023/09/11 09:20:17;;;;;;;1.10;1.05;;;;;;;24.51;100.00;100340.06;5051723;28;20243;-81
2023/09/11 09:22:58;;;;;;;1.48;1.38;;;;;;;24.89;100.00;100333.63;5049899;28;20233;-78
2023/09/11 09:25:26;;;;;;;1.40;1.08;;;;;;;24.88;100.00;100296.72;5062070;28;20236;-81
2023/09/11 09:27:55;;;;;;;1.02;1.02;;;;;;;24.96;100.00;100277.38;5040752;28;20225;-79
2023/09/11 09:30:30;;;;;;;1.02;0.95;;;;;;;25.05;100.00;100263.38;5061594;28;20235;-79
2023/09/11 09:32:57;;;;;;;1.50;1.38;;;;;;;25.31;100.00;100232.22;5060941;28;20224;-79
2023/09/11 09:35:31;;;;;;;0.70;0.70;;;;;;;25.48;100.00;100221.31;5047594;28;20292;-78
2023/09/11 09:38:00;;;;;;;0.77;0.77;;;;;;;25.55;100.00;100208.31;5055929;28;20293;-79
2023/09/11 09:40:30;;;;;;;0.93;0.93;;;;;;;26.07;100.00;100237.91;5065740;28;20294;-78
2023/09/11 09:43:01;;;;;;;1.13;0.57;;;;;;;26.14;100.00;100202.22;5059049;28;20248;-79
2023/09/11 09:45:39;;;;;;;1.48;1.33;;;;;;;26.20;100.00;100159.44;5061683;28;20234;-79
2023/09/11 09:48:18;;;;;;;0.50;0.50;;;;;;;26.53;100.00;100183.69;5054626;28;20275;-79
2023/09/11 09:51:02;;;;;;;2.33;2.13;;;;;;;26.61;100.00;100148.81;5045226;28;20311;-79
2023/09/11 09:53:31;;;;;;;1.48;1.38;;;;;;;26.53;100.00;100113.16;5049372;28;20264;-81
2023/09/11 09:56:04;;;;;;;1.15;1.15;;;;;;;27.37;100.00;100217.34;5058794;28;20229;-81
2023/09/11 09:58:35;;;;;;;0.68;0.68;;;;;;;26.98;100.00;100087.72;5051473;28;20302;-81
2023/09/11 10:01:04;;;;;;;4.50;1.88;;;;;;;26.78;100.00;100011.16;5058203;28;20232;-81
2023/09/11 10:03:48;;;;;;;1.75;0.82;;;;;;;27.19;100.00;100031.16;5065933;28;20721;-81
2023/09/11 10:06:17;;;;;;;1.50;1.40;;;;;;;27.29;100.00;100043.16;5064643;28;20233;-81
2023/09/11 10:08:44;;;;;;;0.40;0.40;;;;;;;27.93;100.00;100109.53;5055130;28;20668;-81
2023/09/11 10:11:28;;;;;;;4.07;1.45;;;;;;;28.05;100.00;100016.28;5037815;28;20221;-81
2023/09/11 10:13:59;;;;;;;0.88;0.88;;;;;;;27.89;100.00;99955.81;5029387;28;20233;-81
2023/09/11 10:16:27;;;;;;;0.80;0.80;;;;;;;27.78;100.00;99931.25;5046708;28;20238;-80
2023/09/11 10:18:55;;;;;;;1.65;1.30;;;;;;;28.03;100.00;99904.06;5055696;28;20282;-82
2023/09/11 10:21:23;;;;;;;1.13;0.65;;;;;;;28.85;100.00;99995.19;5065407;28;20225;-81
2023/09/11 10:23:52;;;;;;;1.58;1.50;;;;;;;28.52;100.00;99884.22;5063247;28;20319;-81
2023/09/11 10:26:24;;;;;;;1.17;1.08;;;;;;;28.37;100.00;99791.03;5065108;28;20244;-80
2023/09/11 10:28:52;;;;;;;0.50;0.50;;;;;;;28.45;100.00;99783.16;5049440;28;20243;-79
2023/09/11 10:31:52;;;;;;;1.40;1.30;;;;;;;29.10;100.00;99853.53;5048537;28;20243;-80
2023/09/11 10:34:19;;;;;;;0.63;0.63;;;;;;;29.26;100.00;99755.19;5040269;28;20247;-80
2023/09/11 10:36:50;;;;;;;0.88;0.88;;;;;;;29.07;100.00;99724.94;5042350;28;20239;-80
2023/09/11 10:39:18;;;;;;;1.08;0.82;;;;;;;29.26;100.00;99731.53;5059042;28;20225;-80
2023/09/11 10:41:45;;;;;;;0.45;0.45;;;;;;;28.84;100.00;99601.56;5048908;28;20316;-80
2023/09/11 10:44:12;;;;;;;2.00;1.50;;;;;;;29.53;100.00;99689.47;5061124;28;20228;-80
2023/09/11 10:46:39;;;;;;;1.52;0.80;;;;;;;29.66;100.00;99676.59;5035205;28;20230;-80
2023/09/11 10:49:17;;;;;;;1.25;1.13;;;;;;;29.36;100.00;99551.03;5038562;28;20444;-80
2023/09/11 10:51:46;;;;;;;0.73;0.68;;;;;;;30.74;100.00;99782.13;5057301;28;20227;-79
2023/09/11 10:54:16;;;;;;;0.77;0.77;;;;;;;30.63;100.00;99571.16;5062088;28;20641;-80
2023/09/11 10:56:43;;;;;;;0.47;0.47;;;;;;;30.07;100.00;99456.94;5060627;28;20237;-80
2023/09/11 10:59:10;;;;;;;0.60;0.60;;;;;;;29.89;100.00;99426.63;5059436;28;20233;-80
2023/09/11 11:01:37;;;;;;;0.85;0.70;;;;;;;29.73;100.00;99391.69;5070391;28;20284;-80
2023/09/11 11:04:04;;;;;;;1.20;0.85;;;;;;;30.15;100.00;99449.84;5054781;28;20696;-80
2023/09/11 11:06:33;;;;;;;0.75;0.75;;;;;;;30.48;100.00;99456.03;5059655;28;20232;-80
2023/09/11 11:09:00;;;;;;;0.40;0.40;;;;;;;31.70;100.00;99647.19;5060648;28;20324;-80
2023/09/11 11:11:30;;;;;;;1.30;1.02;;;;;;;30.84;100.00;99386.38;5064652;28;20229;-80
2023/09/11 11:14:18;;;;;;;9.13;1.20;;;;;;;31.40;100.00;99490.47;5048377;28;20229;-80
2023/09/11 11:17:08;;;;;;;0.68;0.68;;;;;;;31.45;100.00;99359.75;5059821;28;20708;-80
2023/09/11 11:19:40;;;;;;;0.57;0.40;;;;;;;30.68;100.00;99160.41;5065202;28;20240;-80
2023/09/11 11:22:08;;;;;;;1.35;1.25;;;;;;;31.18;100.00;99234.81;5016484;28;20233;-80